Dawn Merchant — MYIL6 — position and weather

sailwx.info

Track history (hours):
 
Tides and Currents Weather Stations Pressure Air Temp Water Temp Dewpoint Dewpoint Depression Visibility Wind Speed Wind Dir Waves Ship Positions

Dawn Merchant

Operator: Norfolk Line

Last reported at 2019-Sep-21 00:58 UTC. Time now 2019-Sep-21 01:21 UTC.
Position S 41°16' E 174°47'.

Length 180 m; draft 5.8 m.

Type: Passenger vessel. MMSI: 232197000.

Date/timePositionNaut miles runAvg speedWind from/ knotsBaromVisibWave heightAir tempDewpointWater temp
2019-Sep-21 00:58S 41°16' E 174°47'0 0.0
2019-Sep-21 00:30S 41°16' E 174°47'4 7.2
2019-Sep-21 00:00S 41°18' E 174°51'714.7
2019-Sep-20 23:30S 41°24' E 174°45'816.4
2019-Sep-20 23:00S 41°21' E 174°35'917.6
2019-Sep-20 22:30S 41°17' E 174°25'713.3
2019-Sep-20 22:00S 41°13' E 174°17'612.4
2019-Sep-20 21:31S 41°15' E 174°09'612.1
2019-Sep-20 21:00S 41°16' E 174°01'1 2.8
2019-Sep-20 20:30S 41°17' E 174°00'0 0.0
2019-Sep-20 20:00S 41°17' E 174°00'0 0.0
2019-Sep-20 19:30S 41°17' E 174°00'0 0.0
2019-Sep-20 19:00S 41°17' E 174°00'4 7.4
2019-Sep-20 18:31S 41°14' E 174°04'612.3
2019-Sep-20 18:01S 41°14' E 174°12'612.8
2019-Sep-20 17:30S 41°14' E 174°21'1019.1
2019-Sep-20 17:01S 41°19' E 174°31'816.9
2019-Sep-20 16:31S 41°23' E 174°41'815.9
2019-Sep-20 16:01S 41°20' E 174°51'5 9.2
2019-Sep-20 15:30S 41°16' E 174°47'0 0.0
2019-Sep-20 14:59S 41°16' E 174°47'0 0.0
2019-Sep-20 14:29S 41°16' E 174°47'0 0.0
2019-Sep-20 13:59S 41°16' E 174°47'0 0.0
2019-Sep-20 13:30S 41°16' E 174°47'4 8.6
2019-Sep-20 13:00S 41°19' E 174°51'612.9
2019-Sep-20 12:30S 41°23' E 174°45'714.5
2019-Sep-20 12:00S 41°22' E 174°36'815.2
2019-Sep-20 11:30S 41°18' E 174°27'815.6
2019-Sep-20 11:01S 41°13' E 174°19'713.5
2019-Sep-20 10:30S 41°15' E 174°11'612.5
2019-Sep-20 10:00S 41°15' E 174°02'2 4.6
2019-Sep-20 09:29S 41°17' E 174°00'0 0.0
2019-Sep-20 08:59S 41°17' E 174°00'0 0.0
2019-Sep-20 08:30S 41°17' E 174°00'1 2.6
2019-Sep-20 08:00S 41°16' E 174°01'612.7
2019-Sep-20 07:30S 41°14' E 174°09'714.0
2019-Sep-20 07:01S 41°13' E 174°18'918.9
2019-Sep-20 06:30S 41°18' E 174°29'918.1
2019-Sep-20 06:00S 41°22' E 174°39'917.3
2019-Sep-20 05:30S 41°21' E 174°51'510.8
2019-Sep-20 05:00S 41°16' E 174°47'0 0.0
2019-Sep-20 04:30S 41°16' E 174°47'0 0.0
2019-Sep-20 04:00S 41°16' E 174°47'0 0.0
2019-Sep-20 03:30S 41°16' E 174°47'0 0.0
2019-Sep-20 03:00S 41°16' E 174°47'0 0.0
2019-Sep-20 02:30S 41°16' E 174°47'0 0.0
2019-Sep-20 02:00S 41°16' E 174°47'0 0.0
2019-Sep-20 01:30S 41°16' E 174°47'0 0.0
2019-Sep-20 01:00S 41°16' E 174°47'0 0.0
2019-Sep-20 00:30S 41°16' E 174°47'3 6.6
2019-Sep-20 00:00S 41°17' E 174°51'815.1
2019-Sep-19 23:30S 41°24' E 174°46'917.0
2019-Sep-19 23:00S 41°21' E 174°35'917.5
2019-Sep-19 22:30S 41°17' E 174°25'713.9
2019-Sep-19 22:01S 41°13' E 174°17'612.4
2019-Sep-19 21:31S 41°14' E 174°09'612.5
2019-Sep-19 21:00S 41°16' E 174°01'1 2.1
2019-Sep-19 20:28S 41°17' E 174°00'0 0.0
2019-Sep-19 19:58S 41°17' E 174°00'0 0.0
2019-Sep-19 19:28S 41°17' E 174°00'0 0.0
2019-Sep-19 19:01S 41°17' E 174°00'2 4.8
2019-Sep-19 18:30S 41°15' E 174°02'612.6
2019-Sep-19 18:00S 41°15' E 174°10'713.7
2019-Sep-19 17:30S 41°13' E 174°19'919.0
2019-Sep-19 17:00S 41°18' E 174°29'816.8
2019-Sep-19 16:30S 41°22' E 174°39'917.1
2019-Sep-19 16:00S 41°21' E 174°50'611.7
2019-Sep-19 15:30S 41°16' E 174°47'0 0.0
2019-Sep-19 14:59S 41°16' E 174°47'0 0.0
2019-Sep-19 14:29S 41°16' E 174°47'0 0.0
2019-Sep-19 13:59S 41°16' E 174°47'0 0.0
2019-Sep-19 13:30S 41°16' E 174°47'4 8.2
2019-Sep-19 13:01S 41°19' E 174°51'613.0
2019-Sep-19 12:31S 41°23' E 174°45'815.4
2019-Sep-19 12:01S 41°21' E 174°35'816.3
2019-Sep-19 11:31S 41°17' E 174°27'815.4
2019-Sep-19 11:01S 41°13' E 174°17'612.6
2019-Sep-19 10:31S 41°14' E 174°09'612.9
2019-Sep-19 10:01S 41°16' E 174°01'1 1.7
2019-Sep-19 09:30S 41°17' E 174°00'0 0.0
2019-Sep-19 09:00S 41°17' E 174°00'0 0.0
2019-Sep-19 08:30S 41°17' E 174°00'1 1.9
2019-Sep-19 08:01S 41°16' E 174°01'713.4
2019-Sep-19 07:31S 41°14' E 174°09'714.2
2019-Sep-19 07:01S 41°13' E 174°19'816.5
2019-Sep-19 06:31S 41°17' E 174°28'815.8
2019-Sep-19 06:01S 41°21' E 174°37'816.1
2019-Sep-19 05:31S 41°22' E 174°47'612.2
2019-Sep-19 05:01S 41°17' E 174°49'2 3.4
2019-Sep-19 04:29S 41°16' E 174°47'0 0.0
2019-Sep-19 03:59S 41°16' E 174°47'0 0.0
2019-Sep-19 03:29S 41°16' E 174°47'0 0.0
2019-Sep-19 02:59S 41°16' E 174°47'0 0.0
2019-Sep-19 02:29S 41°16' E 174°47'0 0.0
2019-Sep-19 01:59S 41°16' E 174°47'0 0.0
2019-Sep-19 01:29S 41°16' E 174°47'0 0.0
2019-Sep-19 00:59S 41°16' E 174°47'0 0.0
2019-Sep-19 00:30S 41°16' E 174°47'4 7.9
2019-Sep-19 00:00S 41°18' E 174°51'714.5
2019-Sep-18 23:30S 41°23' E 174°45'917.1
2019-Sep-18 23:00S 41°21' E 174°34'918.1
2019-Sep-18 22:30S 41°16' E 174°24'611.7
2019-Sep-18 22:00S 41°14' E 174°16'611.1
2019-Sep-18 21:31S 41°14' E 174°09'713.0
2019-Sep-18 21:00S 41°16' E 174°01'1 1.6
2019-Sep-18 20:30S 41°17' E 174°00'0 0.0
2019-Sep-18 20:00S 41°17' E 174°00'0 0.0
2019-Sep-18 19:30S 41°17' E 174°00'0 0.1
2019-Sep-18 19:00S 41°17' E 174°00'3 6.0
2019-Sep-18 18:30S 41°15' E 174°03'612.6
2019-Sep-18 18:00S 41°15' E 174°11'713.6
2019-Sep-18 17:30S 41°14' E 174°20'816.5
2019-Sep-18 17:00S 41°18' E 174°30'815.1
2019-Sep-18 16:30S 41°22' E 174°38'816.0
2019-Sep-18 16:01S 41°22' E 174°49'612.4
2019-Sep-18 15:31S 41°16' E 174°47'0 0.3
2019-Sep-18 14:59S 41°16' E 174°47'0 0.0
2019-Sep-18 14:26S 41°16' E 174°47'0 0.0
2019-Sep-18 13:59S 41°16' E 174°47'0 0.0
2019-Sep-18 13:30S 41°16' E 174°47'4 7.1
2019-Sep-18 13:00S 41°18' E 174°51'713.6
2019-Sep-18 12:30S 41°23' E 174°47'816.0
2019-Sep-18 12:00S 41°22' E 174°36'815.9
2019-Sep-18 11:30S 41°18' E 174°27'816.2
2019-Sep-18 11:01S 41°13' E 174°19'714.1
2019-Sep-18 10:31S 41°15' E 174°10'612.6
2019-Sep-18 10:00S 41°15' E 174°02'2 3.5
2019-Sep-18 09:28S 41°17' E 174°00'0 0.0
2019-Sep-18 08:58S 41°17' E 174°00'0 0.0
2019-Sep-18 08:28S 41°17' E 174°00'1 2.0
2019-Sep-18 08:00S 41°16' E 174°01'713.6
2019-Sep-18 07:31S 41°14' E 174°09'713.5
2019-Sep-18 07:01S 41°13' E 174°18'816.7
2019-Sep-18 06:30S 41°17' E 174°28'816.1
2019-Sep-18 06:00S 41°21' E 174°37'816.8
2019-Sep-18 05:30S 41°22' E 174°48'611.9
2019-Sep-18 05:00S 41°16' E 174°49'2 3.0
2019-Sep-18 04:29S 41°16' E 174°47'0 0.0
2019-Sep-18 03:59S 41°16' E 174°47'0 0.0
2019-Sep-18 03:29S 41°16' E 174°47'0 0.0
2019-Sep-18 02:59S 41°16' E 174°47'0 0.0
2019-Sep-18 02:29S 41°16' E 174°47'0 0.0
2019-Sep-18 01:59S 41°16' E 174°47'0 0.0
2019-Sep-18 01:29S 41°16' E 174°47'0 0.0
2019-Sep-18 00:59S 41°16' E 174°47'0 0.0
2019-Sep-18 00:29S 41°16' E 174°47'0 0.4
2019-Sep-18 00:00S 41°16' E 174°47'611.7
2019-Sep-17 23:31S 41°21' E 174°50'815.6
2019-Sep-17 23:01S 41°23' E 174°40'917.2
2019-Sep-17 22:31S 41°19' E 174°30'918.3
2019-Sep-17 22:01S 41°14' E 174°20'713.2
2019-Sep-17 21:31S 41°15' E 174°11'713.1
2019-Sep-17 21:01S 41°15' E 174°03'3 5.4
2019-Sep-17 20:30S 41°17' E 174°00'0 0.0
2019-Sep-17 20:00S 41°17' E 174°00'0 0.0
2019-Sep-17 19:30S 41°17' E 174°00'0 0.0
2019-Sep-17 19:01S 41°17' E 174°00'2 4.2
2019-Sep-17 18:30S 41°15' E 174°02'612.8
2019-Sep-17 18:00S 41°15' E 174°10'714.8
2019-Sep-17 17:31S 41°13' E 174°20'816.4
2019-Sep-17 17:00S 41°18' E 174°29'815.2
2019-Sep-17 16:30S 41°22' E 174°38'815.4
2019-Sep-17 16:01S 41°22' E 174°48'612.0
2019-Sep-17 15:31S 41°16' E 174°49'2 3.0
2019-Sep-17 14:59S 41°16' E 174°47'0 0.0
2019-Sep-17 14:29S 41°16' E 174°47'0 0.0
2019-Sep-17 13:59S 41°16' E 174°47'0 0.0
2019-Sep-17 13:29S 41°16' E 174°47'2 4.4
2019-Sep-17 13:01S 41°16' E 174°50'714.5
2019-Sep-17 12:31S 41°24' E 174°49'816.2
2019-Sep-17 12:01S 41°23' E 174°38'816.2
2019-Sep-17 11:31S 41°18' E 174°29'815.9
2019-Sep-17 11:01S 41°14' E 174°20'612.5
2019-Sep-17 10:31S 41°14' E 174°12'612.9
2019-Sep-17 10:01S 41°15' E 174°03'3 6.0
2019-Sep-17 09:28S 41°17' E 174°00'0 0.0
2019-Sep-17 08:58S 41°17' E 174°00'0 0.0
2019-Sep-17 08:28S 41°17' E 174°00'1 2.0
2019-Sep-17 08:00S 41°16' E 174°01'713.5
2019-Sep-17 07:31S 41°14' E 174°09'714.5
2019-Sep-17 07:01S 41°13' E 174°19'816.8
2019-Sep-17 06:30S 41°17' E 174°28'817.0
2019-Sep-17 06:00S 41°22' E 174°38'917.2
2019-Sep-17 05:31S 41°22' E 174°49'612.0
2019-Sep-17 05:00S 41°16' E 174°48'1 1.1
2019-Sep-17 04:30S 41°16' E 174°47'0 0.0
2019-Sep-17 03:57S 41°16' E 174°47'0 0.0
2019-Sep-17 03:30S 41°16' E 174°47'0 0.0
2019-Sep-17 03:00S 41°16' E 174°47'0 0.0
2019-Sep-17 02:30S 41°16' E 174°47'0 0.0
2019-Sep-17 02:00S 41°16' E 174°47'0 0.0
2019-Sep-17 01:27S 41°16' E 174°47'0 0.0
2019-Sep-17 01:00S 41°16' E 174°47'0 0.0
2019-Sep-17 00:30S 41°16' E 174°47'1 2.1
2019-Sep-17 00:00S 41°16' E 174°49'612.9
2019-Sep-16 23:31S 41°23' E 174°50'816.2
2019-Sep-16 23:01S 41°23' E 174°39'816.7
2019-Sep-16 22:31S 41°19' E 174°30'917.8
2019-Sep-16 22:01S 41°13' E 174°20'713.6
2019-Sep-16 21:31S 41°15' E 174°11'612.7
2019-Sep-16 21:01S 41°15' E 174°03'3 5.5
2019-Sep-16 20:30S 41°17' E 174°00'0 0.0
2019-Sep-16 20:00S 41°17' E 174°00'0 0.0
2019-Sep-16 19:30S 41°17' E 174°00'0 0.0
2019-Sep-16 19:00S 41°17' E 174°00'1 1.7
2019-Sep-16 18:30S 41°16' E 174°01'713.6
2019-Sep-16 18:01S 41°14' E 174°09'713.2
2019-Sep-16 17:30S 41°13' E 174°18'815.5
2019-Sep-16 17:00S 41°17' E 174°27'815.1
2019-Sep-16 16:30S 41°21' E 174°35'815.8
2019-Sep-16 16:00S 41°23' E 174°46'713.2
2019-Sep-16 15:31S 41°17' E 174°51'3 5.9
2019-Sep-16 15:00S 41°16' E 174°47'0 0.0
2019-Sep-16 14:30S 41°16' E 174°47'0 0.0
2019-Sep-16 14:00S 41°16' E 174°47'0 0.0
2019-Sep-16 13:30S 41°16' E 174°47'0 0.0
2019-Sep-16 13:00S 41°16' E 174°47'0 0.0
2019-Sep-16 12:30S 41°16' E 174°47'0 0.0
2019-Sep-16 12:00S 41°16' E 174°47'0 0.0
2019-Sep-16 11:30S 41°16' E 174°47'0 0.0
2019-Sep-16 11:00S 41°16' E 174°47'0 0.0
2019-Sep-16 10:30S 41°16' E 174°47'0 0.0
2019-Sep-16 10:00S 41°16' E 174°47'0 0.0
2019-Sep-16 09:30S 41°16' E 174°47'0 0.0
2019-Sep-16 09:00S 41°16' E 174°47'0 0.2
2019-Sep-16 08:27S 41°16' E 174°47'0 0.0
2019-Sep-16 08:00S 41°16' E 174°47'0 0.0
2019-Sep-16 07:09S 41°16' E 174°47'0 0.0
2019-Sep-16 06:57S 41°16' E 174°47'0 0.0
2019-Sep-16 06:30S 41°16' E 174°47'0 0.0
2019-Sep-16 06:00S 41°16' E 174°47'0 0.0
2019-Sep-16 05:30S 41°16' E 174°47'0 0.0
2019-Sep-16 05:00S 41°16' E 174°47'0 0.0
2019-Sep-16 04:30S 41°16' E 174°47'0 0.0
2019-Sep-16 04:00S 41°16' E 174°47'0 0.0
2019-Sep-16 03:30S 41°16' E 174°47'0 0.0
2019-Sep-16 03:00S 41°16' E 174°47'0 0.0
2019-Sep-16 02:30S 41°16' E 174°47'0 0.0
2019-Sep-16 01:57S 41°16' E 174°47'0 0.0
2019-Sep-16 01:30S 41°16' E 174°47'0 0.0
2019-Sep-16 01:00S 41°16' E 174°47'0 0.0
2019-Sep-16 00:30S 41°16' E 174°47'0 0.0
2019-Sep-16 00:00S 41°16' E 174°47'0 0.0
2019-Sep-15 23:30S 41°16' E 174°47'0 0.0
2019-Sep-15 23:00S 41°16' E 174°47'0 0.0
2019-Sep-15 22:30S 41°16' E 174°47'0 0.0
2019-Sep-15 22:00S 41°16' E 174°47'0 0.0
2019-Sep-15 21:30S 41°16' E 174°47'0 0.0
2019-Sep-15 21:00S 41°16' E 174°47'0 0.0
2019-Sep-15 20:30S 41°16' E 174°47'0 0.0
2019-Sep-15 20:00S 41°16' E 174°47'0 0.0
2019-Sep-15 19:30S 41°16' E 174°47'0 0.0
2019-Sep-15 19:00S 41°16' E 174°47'0 0.0
2019-Sep-15 18:30S 41°16' E 174°47'0 0.0
2019-Sep-15 18:00S 41°16' E 174°47'0 0.3
2019-Sep-15 17:30S 41°16' E 174°47'0 0.3
2019-Sep-15 16:58S 41°16' E 174°47'0 0.0
2019-Sep-15 16:28S 41°16' E 174°47'0 0.4
2019-Sep-15 16:01S 41°16' E 174°47'510.7
2019-Sep-15 15:30S 41°21' E 174°51'612.6
2019-Sep-15 15:00S 41°23' E 174°43'816.3
2019-Sep-15 14:30S 41°20' E 174°33'816.3
2019-Sep-15 14:00S 41°16' E 174°24'612.7
2019-Sep-15 13:30S 41°14' E 174°16'713.9
2019-Sep-15 13:00S 41°14' E 174°07'610.7
2019-Sep-15 12:30S 41°17' E 174°00'0 0.0
2019-Sep-15 12:00S 41°17' E 174°00'0 0.0
2019-Sep-15 11:30S 41°17' E 174°00'3 6.3
2019-Sep-15 11:01S 41°15' E 174°03'713.3
2019-Sep-15 10:31S 41°14' E 174°12'713.2
2019-Sep-15 10:01S 41°14' E 174°21'816.3
2019-Sep-15 09:31S 41°18' E 174°30'917.5
2019-Sep-15 09:01S 41°22' E 174°40'816.4
2019-Sep-15 08:31S 41°21' E 174°51'611.1
2019-Sep-15 08:00S 41°16' E 174°47'0 0.1
2019-Sep-15 07:30S 41°16' E 174°47'0 0.0
2019-Sep-15 07:00S 41°16' E 174°47'0 0.9
2019-Sep-15 06:30S 41°16' E 174°48'3 7.0
2019-Sep-15 06:00S 41°16' E 174°52'2 3.3
2019-Sep-15 05:30S 41°15' E 174°52'4 6.9
2019-Sep-15 05:00S 41°16' E 174°47'0 0.0
2019-Sep-15 04:24S 41°16' E 174°47'0 0.0
2019-Sep-15 03:57S 41°16' E 174°47'0 0.0
2019-Sep-15 03:27S 41°16' E 174°47'0 0.0
2019-Sep-15 02:57S 41°16' E 174°47'0 0.0
2019-Sep-15 02:30S 41°16' E 174°47'0 0.0
2019-Sep-15 01:54S 41°16' E 174°47'0 0.0
2019-Sep-15 01:24S 41°16' E 174°47'0 0.0
2019-Sep-15 01:00S 41°16' E 174°47'0 0.0
2019-Sep-15 00:30S 41°16' E 174°47'0 0.0
2019-Sep-15 00:00S 41°16' E 174°47'0 0.0
2019-Sep-14 23:30S 41°16' E 174°47'0 0.0
2019-Sep-14 23:00S 41°16' E 174°47'0 0.0
2019-Sep-14 22:24S 41°16' E 174°47'0 0.0
2019-Sep-14 22:00S 41°16' E 174°47'1 2.9
2019-Sep-14 21:30S 41°16' E 174°49'0 0.6
2019-Sep-14 21:00S 41°16' E 174°49'0 0.1
2019-Sep-14 20:30S 41°16' E 174°49'0 0.0
2019-Sep-14 20:00S 41°16' E 174°49'0 0.0
2019-Sep-14 19:30S 41°16' E 174°49'0 0.1
2019-Sep-14 19:00S 41°16' E 174°49'0 0.0
2019-Sep-14 18:30S 41°16' E 174°49'0 0.1
2019-Sep-14 18:00S 41°16' E 174°49'0 0.0
2019-Sep-14 17:30S 41°16' E 174°49'0 0.0
2019-Sep-14 17:00S 41°16' E 174°49'0 0.1
2019-Sep-14 16:30S 41°16' E 174°49'0 0.0
2019-Sep-14 16:00S 41°16' E 174°49'0 0.0
2019-Sep-14 15:30S 41°16' E 174°49'0 0.1
2019-Sep-14 15:00S 41°16' E 174°49'1 2.3
2019-Sep-14 14:30S 41°16' E 174°48'1 1.1
2019-Sep-14 14:00S 41°16' E 174°47'0 0.0
2019-Sep-14 13:30S 41°16' E 174°47'0 0.2
2019-Sep-14 13:00S 41°16' E 174°47'5 9.1
2019-Sep-14 12:31S 41°20' E 174°51'612.4
2019-Sep-14 12:01S 41°23' E 174°45'917.1
2019-Sep-14 11:31S 41°21' E 174°34'816.2
2019-Sep-14 11:01S 41°16' E 174°25'713.7
2019-Sep-14 10:31S 41°14' E 174°17'713.5
2019-Sep-14 10:01S 41°14' E 174°08'612.5
2019-Sep-14 09:30S 41°17' E 174°00'0 0.0
2019-Sep-14 09:00S 41°17' E 174°00'0 0.0
2019-Sep-14 08:30S 41°17' E 174°00'0 0.1
2019-Sep-14 08:00S 41°17' E 174°00'4 7.4
2019-Sep-14 07:30S 41°14' E 174°04'612.9
2019-Sep-14 07:00S 41°14' E 174°12'714.2
2019-Sep-14 06:30S 41°14' E 174°22'816.0
2019-Sep-14 06:00S 41°19' E 174°31'918.3
2019-Sep-14 05:30S 41°23' E 174°42'815.2
2019-Sep-14 05:00S 41°20' E 174°51'5 9.3
2019-Sep-14 04:30S 41°16' E 174°47'0 0.0
2019-Sep-14 03:46S 41°16' E 174°47'0 0.0
2019-Sep-14 03:28S 41°16' E 174°47'0 0.0
2019-Sep-14 02:58S 41°16' E 174°47'0 0.0
2019-Sep-14 02:28S 41°16' E 174°47'0 0.0
2019-Sep-14 01:49S 41°16' E 174°47'0 0.0
2019-Sep-14 01:25S 41°16' E 174°47'0 0.0
2019-Sep-14 00:58S 41°16' E 174°47'0 0.0
2019-Sep-14 00:28S 41°16' E 174°47'1 1.5
2019-Sep-14 00:00S 41°16' E 174°48'612.2
2019-Sep-13 23:30S 41°22' E 174°50'815.8
2019-Sep-13 23:00S 41°23' E 174°40'917.8
2019-Sep-13 22:31S 41°19' E 174°29'816.9
2019-Sep-13 22:00S 41°14' E 174°20'714.3
2019-Sep-13 21:30S 41°15' E 174°11'713.0
2019-Sep-13 21:00S 41°15' E 174°02'2 4.4
2019-Sep-13 20:29S 41°17' E 174°00'0 0.0
2019-Sep-13 19:59S 41°17' E 174°00'0 0.0
2019-Sep-13 19:29S 41°17' E 174°00'0 0.2
2019-Sep-13 19:00S 41°17' E 174°00'5 9.7
2019-Sep-13 18:31S 41°14' E 174°06'713.8
2019-Sep-13 18:00S 41°14' E 174°15'815.2
2019-Sep-13 17:30S 41°16' E 174°25'1019.6
2019-Sep-13 17:00S 41°21' E 174°36'1019.8
2019-Sep-13 16:31S 41°22' E 174°49'612.3
2019-Sep-13 16:00S 41°16' E 174°47'0 0.4
2019-Sep-13 15:29S 41°16' E 174°47'0 0.0
2019-Sep-13 14:59S 41°16' E 174°47'0 0.0
2019-Sep-13 14:29S 41°16' E 174°47'0 0.0
2019-Sep-13 13:59S 41°16' E 174°47'0 0.2
2019-Sep-13 13:31S 41°16' E 174°47'510.3
2019-Sep-13 13:00S 41°20' E 174°51'714.3
2019-Sep-13 12:30S 41°23' E 174°42'918.6
2019-Sep-13 12:00S 41°19' E 174°31'917.2
2019-Sep-13 11:30S 41°14' E 174°22'611.7
2019-Sep-13 11:01S 41°14' E 174°14'714.1
2019-Sep-13 10:31S 41°14' E 174°04'4 8.0
2019-Sep-13 10:00S 41°17' E 174°00'0 0.0
2019-Sep-13 09:30S 41°17' E 174°00'0 0.0
2019-Sep-13 09:00S 41°17' E 174°00'0 0.0
2019-Sep-13 08:30S 41°17' E 174°00'0 1.0
2019-Sep-13 08:01S 41°17' E 174°01'713.4
2019-Sep-13 07:30S 41°14' E 174°09'612.8
2019-Sep-13 07:00S 41°13' E 174°17'714.8
2019-Sep-13 06:30S 41°16' E 174°26'816.5
2019-Sep-13 06:00S 41°21' E 174°35'917.5
2019-Sep-13 05:30S 41°22' E 174°47'612.5
2019-Sep-13 05:00S 41°17' E 174°50'2 3.9
2019-Sep-13 04:30S 41°16' E 174°47'0 0.0
2019-Sep-13 04:00S 41°16' E 174°47'0 0.0
2019-Sep-13 03:30S 41°16' E 174°47'0 0.0
2019-Sep-13 03:00S 41°16' E 174°47'0 0.0
2019-Sep-13 02:30S 41°16' E 174°47'0 0.0
2019-Sep-13 01:30S 41°16' E 174°47'0 0.0
2019-Sep-13 01:00S 41°16' E 174°47'0 0.0
2019-Sep-13 00:30S 41°16' E 174°47'1 1.9
2019-Sep-13 00:00S 41°16' E 174°48'612.6
2019-Sep-12 23:30S 41°22' E 174°50'816.0
2019-Sep-12 23:00S 41°23' E 174°39'1019.0
2019-Sep-12 22:30S 41°18' E 174°28'918.0
2019-Sep-12 22:01S 41°13' E 174°19'815.1
2019-Sep-12 21:30S 41°14' E 174°09'713.1
2019-Sep-12 21:01S 41°16' E 174°01'1 1.6
2019-Sep-12 20:30S 41°17' E 174°00'0 0.0
2019-Sep-12 20:00S 41°17' E 174°00'0 0.0
2019-Sep-12 19:30S 41°17' E 174°00'0 0.0
2019-Sep-12 19:00S 41°17' E 174°00'3 5.4
2019-Sep-12 18:30S 41°15' E 174°02'612.8
2019-Sep-12 18:00S 41°15' E 174°11'714.8
2019-Sep-12 17:30S 41°14' E 174°21'816.6
2019-Sep-12 17:00S 41°18' E 174°30'917.4
2019-Sep-12 16:30S 41°22' E 174°40'816.2
2019-Sep-12 16:00S 41°21' E 174°51'611.0
2019-Sep-12 15:30S 41°16' E 174°47'0 0.3
2019-Sep-12 15:00S 41°16' E 174°47'0 0.0
2019-Sep-12 14:30S 41°16' E 174°47'0 0.0
2019-Sep-12 14:00S 41°16' E 174°47'0 0.0
2019-Sep-12 13:30S 41°16' E 174°47'2 3.3
2019-Sep-12 13:01S 41°16' E 174°49'713.9
2019-Sep-12 12:31S 41°23' E 174°50'918.0
2019-Sep-12 12:01S 41°23' E 174°38'918.5
2019-Sep-12 11:31S 41°18' E 174°27'816.8
2019-Sep-12 11:01S 41°13' E 174°18'713.8
2019-Sep-12 10:31S 41°14' E 174°09'713.7
2019-Sep-12 10:00S 41°17' E 174°01'0 0.5
2019-Sep-12 09:30S 41°17' E 174°00'0 0.0
2019-Sep-12 09:00S 41°17' E 174°00'0 0.0
2019-Sep-12 08:30S 41°17' E 174°00'1 1.3
2019-Sep-12 08:00S 41°16' E 174°01'713.8
2019-Sep-12 07:31S 41°13' E 174°09'612.6
2019-Sep-12 07:00S 41°13' E 174°17'815.8
2019-Sep-12 06:30S 41°17' E 174°27'918.1
2019-Sep-12 06:00S 41°21' E 174°37'917.7
2019-Sep-12 05:30S 41°22' E 174°49'612.4
2019-Sep-12 05:00S 41°16' E 174°48'0 1.0
2019-Sep-12 04:30S 41°16' E 174°47'0 0.0
2019-Sep-12 04:00S 41°16' E 174°47'0 0.0
2019-Sep-12 03:30S 41°16' E 174°47'0 0.0
2019-Sep-12 03:00S 41°16' E 174°47'0 0.0
2019-Sep-12 02:30S 41°16' E 174°47'0 0.0
2019-Sep-12 02:00S 41°16' E 174°47'0 0.0
2019-Sep-12 01:30S 41°16' E 174°47'0 0.0
2019-Sep-12 01:00S 41°16' E 174°47'0 0.0
2019-Sep-12 00:30S 41°16' E 174°47'0 0.9
2019-Sep-12 00:01S 41°16' E 174°48'611.5
2019-Sep-11 23:30S 41°22' E 174°50'714.7
2019-Sep-11 23:00S 41°23' E 174°41'918.1
2019-Sep-11 22:30S 41°19' E 174°30'917.3
2019-Sep-11 22:00S 41°14' E 174°21'714.9
2019-Sep-11 21:30S 41°15' E 174°11'713.3
2019-Sep-11 21:00S 41°15' E 174°02'2 4.2
2019-Sep-11 20:28S 41°17' E 174°00'0 0.0
2019-Sep-11 19:58S 41°17' E 174°00'0 0.0
2019-Sep-11 19:28S 41°17' E 174°00'0 0.1
2019-Sep-11 19:00S 41°17' E 174°00'3 6.8
2019-Sep-11 18:30S 41°14' E 174°03'713.3
2019-Sep-11 18:00S 41°14' E 174°12'714.2
2019-Sep-11 17:30S 41°14' E 174°22'816.9
2019-Sep-11 17:01S 41°19' E 174°31'917.9
2019-Sep-11 16:30S 41°23' E 174°42'815.2
2019-Sep-11 16:00S 41°20' E 174°51'5 9.2
2019-Sep-11 15:30S 41°16' E 174°47'0 0.0
2019-Sep-11 15:00S 41°16' E 174°47'0 0.0
2019-Sep-11 14:30S 41°16' E 174°47'0 0.0
2019-Sep-11 14:00S 41°16' E 174°47'0 0.0
2019-Sep-11 13:30S 41°16' E 174°47'4 7.5
2019-Sep-11 13:00S 41°18' E 174°51'713.4
2019-Sep-11 12:30S 41°24' E 174°46'917.0
2019-Sep-11 12:00S 41°21' E 174°35'917.5
2019-Sep-11 11:30S 41°17' E 174°25'714.4
2019-Sep-11 11:00S 41°13' E 174°17'713.1
2019-Sep-11 10:30S 41°14' E 174°08'713.2
2019-Sep-11 10:00S 41°17' E 174°00'0 0.2
2019-Sep-11 09:29S 41°17' E 174°00'0 0.0
2019-Sep-11 08:59S 41°17' E 174°00'0 0.0
2019-Sep-11 08:29S 41°17' E 174°00'0 0.2
2019-Sep-11 08:00S 41°17' E 174°00'5 9.8
2019-Sep-11 07:30S 41°14' E 174°06'713.3
2019-Sep-11 07:00S 41°14' E 174°15'613.0
2019-Sep-11 06:30S 41°15' E 174°23'816.4
2019-Sep-11 06:00S 41°19' E 174°32'1019.9
2019-Sep-11 05:30S 41°23' E 174°45'714.1
2019-Sep-11 05:00S 41°17' E 174°50'2 4.5
2019-Sep-11 04:28S 41°16' E 174°47'0 0.0
2019-Sep-11 03:58S 41°16' E 174°47'0 0.0
2019-Sep-11 03:28S 41°16' E 174°47'0 0.0
2019-Sep-11 02:58S 41°16' E 174°47'0 0.0
2019-Sep-11 02:28S 41°16' E 174°47'0 0.0
2019-Sep-11 01:58S 41°16' E 174°47'0 0.0
2019-Sep-11 01:28S 41°16' E 174°47'0 0.0
2019-Sep-11 00:58S 41°16' E 174°47'  
Track history (hours):
 
Tides and Currents Weather Stations Pressure Air Temp Water Temp Dewpoint Dewpoint Depression Visibility Wind Speed Wind Dir Waves Ship Positions

Dawn Merchant

Operator: Norfolk Line

Last reported at 2019-Sep-21 00:58 UTC. Time now 2019-Sep-21 01:21 UTC.
Position S 41°16' E 174°47'.

Length 180 m; draft 5.8 m.

Type: Passenger vessel. MMSI: 232197000.

Date/timePositionNaut miles runAvg speedWind from/ knotsBaromVisibWave heightAir tempDewpointWater temp
2019-Sep-21 00:58S 41°16' E 174°47'0 0.0
2019-Sep-21 00:30S 41°16' E 174°47'4 7.2
2019-Sep-21 00:00S 41°18' E 174°51'714.7
2019-Sep-20 23:30S 41°24' E 174°45'816.4
2019-Sep-20 23:00S 41°21' E 174°35'917.6
2019-Sep-20 22:30S 41°17' E 174°25'713.3
2019-Sep-20 22:00S 41°13' E 174°17'612.4
2019-Sep-20 21:31S 41°15' E 174°09'612.1
2019-Sep-20 21:00S 41°16' E 174°01'1 2.8
2019-Sep-20 20:30S 41°17' E 174°00'0 0.0
2019-Sep-20 20:00S 41°17' E 174°00'0 0.0
2019-Sep-20 19:30S 41°17' E 174°00'0 0.0
2019-Sep-20 19:00S 41°17' E 174°00'4 7.4
2019-Sep-20 18:31S 41°14' E 174°04'612.3
2019-Sep-20 18:01S 41°14' E 174°12'612.8
2019-Sep-20 17:30S 41°14' E 174°21'1019.1
2019-Sep-20 17:01S 41°19' E 174°31'816.9
2019-Sep-20 16:31S 41°23' E 174°41'815.9
2019-Sep-20 16:01S 41°20' E 174°51'5 9.2
2019-Sep-20 15:30S 41°16' E 174°47'0 0.0
2019-Sep-20 14:59S 41°16' E 174°47'0 0.0
2019-Sep-20 14:29S 41°16' E 174°47'0 0.0
2019-Sep-20 13:59S 41°16' E 174°47'0 0.0
2019-Sep-20 13:30S 41°16' E 174°47'4 8.6
2019-Sep-20 13:00S 41°19' E 174°51'612.9
2019-Sep-20 12:30S 41°23' E 174°45'714.5
2019-Sep-20 12:00S 41°22' E 174°36'815.2
2019-Sep-20 11:30S 41°18' E 174°27'815.6
2019-Sep-20 11:01S 41°13' E 174°19'713.5
2019-Sep-20 10:30S 41°15' E 174°11'612.5
2019-Sep-20 10:00S 41°15' E 174°02'2 4.6
2019-Sep-20 09:29S 41°17' E 174°00'0 0.0
2019-Sep-20 08:59S 41°17' E 174°00'0 0.0
2019-Sep-20 08:30S 41°17' E 174°00'1 2.6
2019-Sep-20 08:00S 41°16' E 174°01'612.7
2019-Sep-20 07:30S 41°14' E 174°09'714.0
2019-Sep-20 07:01S 41°13' E 174°18'918.9
2019-Sep-20 06:30S 41°18' E 174°29'918.1
2019-Sep-20 06:00S 41°22' E 174°39'917.3
2019-Sep-20 05:30S 41°21' E 174°51'510.8
2019-Sep-20 05:00S 41°16' E 174°47'0 0.0
2019-Sep-20 04:30S 41°16' E 174°47'0 0.0
2019-Sep-20 04:00S 41°16' E 174°47'0 0.0
2019-Sep-20 03:30S 41°16' E 174°47'0 0.0
2019-Sep-20 03:00S 41°16' E 174°47'0 0.0
2019-Sep-20 02:30S 41°16' E 174°47'0 0.0
2019-Sep-20 02:00S 41°16' E 174°47'0 0.0
2019-Sep-20 01:30S 41°16' E 174°47'0 0.0
2019-Sep-20 01:00S 41°16' E 174°47'0 0.0
2019-Sep-20 00:30S 41°16' E 174°47'3 6.6
2019-Sep-20 00:00S 41°17' E 174°51'815.1
2019-Sep-19 23:30S 41°24' E 174°46'917.0
2019-Sep-19 23:00S 41°21' E 174°35'917.5
2019-Sep-19 22:30S 41°17' E 174°25'713.9
2019-Sep-19 22:01S 41°13' E 174°17'612.4
2019-Sep-19 21:31S 41°14' E 174°09'612.5
2019-Sep-19 21:00S 41°16' E 174°01'1 2.1
2019-Sep-19 20:28S 41°17' E 174°00'0 0.0
2019-Sep-19 19:58S 41°17' E 174°00'0 0.0
2019-Sep-19 19:28S 41°17' E 174°00'0 0.0
2019-Sep-19 19:01S 41°17' E 174°00'2 4.8
2019-Sep-19 18:30S 41°15' E 174°02'612.6
2019-Sep-19 18:00S 41°15' E 174°10'713.7
2019-Sep-19 17:30S 41°13' E 174°19'919.0
2019-Sep-19 17:00S 41°18' E 174°29'816.8
2019-Sep-19 16:30S 41°22' E 174°39'917.1
2019-Sep-19 16:00S 41°21' E 174°50'611.7
2019-Sep-19 15:30S 41°16' E 174°47'0 0.0
2019-Sep-19 14:59S 41°16' E 174°47'0 0.0
2019-Sep-19 14:29S 41°16' E 174°47'0 0.0
2019-Sep-19 13:59S 41°16' E 174°47'0 0.0
2019-Sep-19 13:30S 41°16' E 174°47'4 8.2
2019-Sep-19 13:01S 41°19' E 174°51'613.0
2019-Sep-19 12:31S 41°23' E 174°45'815.4
2019-Sep-19 12:01S 41°21' E 174°35'816.3
2019-Sep-19 11:31S 41°17' E 174°27'815.4
2019-Sep-19 11:01S 41°13' E 174°17'612.6
2019-Sep-19 10:31S 41°14' E 174°09'612.9
2019-Sep-19 10:01S 41°16' E 174°01'1 1.7
2019-Sep-19 09:30S 41°17' E 174°00'0 0.0
2019-Sep-19 09:00S 41°17' E 174°00'0 0.0
2019-Sep-19 08:30S 41°17' E 174°00'1 1.9
2019-Sep-19 08:01S 41°16' E 174°01'713.4
2019-Sep-19 07:31S 41°14' E 174°09'714.2
2019-Sep-19 07:01S 41°13' E 174°19'816.5
2019-Sep-19 06:31S 41°17' E 174°28'815.8
2019-Sep-19 06:01S 41°21' E 174°37'816.1
2019-Sep-19 05:31S 41°22' E 174°47'612.2
2019-Sep-19 05:01S 41°17' E 174°49'2 3.4
2019-Sep-19 04:29S 41°16' E 174°47'0 0.0
2019-Sep-19 03:59S 41°16' E 174°47'0 0.0
2019-Sep-19 03:29S 41°16' E 174°47'0 0.0
2019-Sep-19 02:59S 41°16' E 174°47'0 0.0
2019-Sep-19 02:29S 41°16' E 174°47'0 0.0
2019-Sep-19 01:59S 41°16' E 174°47'0 0.0
2019-Sep-19 01:29S 41°16' E 174°47'0 0.0
2019-Sep-19 00:59S 41°16' E 174°47'0 0.0
2019-Sep-19 00:30S 41°16' E 174°47'4 7.9
2019-Sep-19 00:00S 41°18' E 174°51'714.5
2019-Sep-18 23:30S 41°23' E 174°45'917.1
2019-Sep-18 23:00S 41°21' E 174°34'918.1
2019-Sep-18 22:30S 41°16' E 174°24'611.7
2019-Sep-18 22:00S 41°14' E 174°16'611.1
2019-Sep-18 21:31S 41°14' E 174°09'713.0
2019-Sep-18 21:00S 41°16' E 174°01'1 1.6
2019-Sep-18 20:30S 41°17' E 174°00'0 0.0
2019-Sep-18 20:00S 41°17' E 174°00'0 0.0
2019-Sep-18 19:30S 41°17' E 174°00'0 0.1
2019-Sep-18 19:00S 41°17' E 174°00'3 6.0
2019-Sep-18 18:30S 41°15' E 174°03'612.6
2019-Sep-18 18:00S 41°15' E 174°11'713.6
2019-Sep-18 17:30S 41°14' E 174°20'816.5
2019-Sep-18 17:00S 41°18' E 174°30'815.1
2019-Sep-18 16:30S 41°22' E 174°38'816.0
2019-Sep-18 16:01S 41°22' E 174°49'612.4
2019-Sep-18 15:31S 41°16' E 174°47'0 0.3
2019-Sep-18 14:59S 41°16' E 174°47'0 0.0
2019-Sep-18 14:26S 41°16' E 174°47'0 0.0
2019-Sep-18 13:59S 41°16' E 174°47'0 0.0
2019-Sep-18 13:30S 41°16' E 174°47'4 7.1
2019-Sep-18 13:00S 41°18' E 174°51'713.6
2019-Sep-18 12:30S 41°23' E 174°47'816.0
2019-Sep-18 12:00S 41°22' E 174°36'815.9
2019-Sep-18 11:30S 41°18' E 174°27'816.2
2019-Sep-18 11:01S 41°13' E 174°19'714.1
2019-Sep-18 10:31S 41°15' E 174°10'612.6
2019-Sep-18 10:00S 41°15' E 174°02'2 3.5
2019-Sep-18 09:28S 41°17' E 174°00'0 0.0
2019-Sep-18 08:58S 41°17' E 174°00'0 0.0
2019-Sep-18 08:28S 41°17' E 174°00'1 2.0
2019-Sep-18 08:00S 41°16' E 174°01'713.6
2019-Sep-18 07:31S 41°14' E 174°09'713.5
2019-Sep-18 07:01S 41°13' E 174°18'816.7
2019-Sep-18 06:30S 41°17' E 174°28'816.1
2019-Sep-18 06:00S 41°21' E 174°37'816.8
2019-Sep-18 05:30S 41°22' E 174°48'611.9
2019-Sep-18 05:00S 41°16' E 174°49'2 3.0
2019-Sep-18 04:29S 41°16' E 174°47'0 0.0
2019-Sep-18 03:59S 41°16' E 174°47'0 0.0
2019-Sep-18 03:29S 41°16' E 174°47'0 0.0
2019-Sep-18 02:59S 41°16' E 174°47'0 0.0
2019-Sep-18 02:29S 41°16' E 174°47'0 0.0
2019-Sep-18 01:59S 41°16' E 174°47'0 0.0
2019-Sep-18 01:29S 41°16' E 174°47'0 0.0
2019-Sep-18 00:59S 41°16' E 174°47'0 0.0
2019-Sep-18 00:29S 41°16' E 174°47'0 0.4
2019-Sep-18 00:00S 41°16' E 174°47'611.7
2019-Sep-17 23:31S 41°21' E 174°50'815.6
2019-Sep-17 23:01S 41°23' E 174°40'917.2
2019-Sep-17 22:31S 41°19' E 174°30'918.3
2019-Sep-17 22:01S 41°14' E 174°20'713.2
2019-Sep-17 21:31S 41°15' E 174°11'713.1
2019-Sep-17 21:01S 41°15' E 174°03'3 5.4
2019-Sep-17 20:30S 41°17' E 174°00'0 0.0
2019-Sep-17 20:00S 41°17' E 174°00'0 0.0
2019-Sep-17 19:30S 41°17' E 174°00'0 0.0
2019-Sep-17 19:01S 41°17' E 174°00'2 4.2
2019-Sep-17 18:30S 41°15' E 174°02'612.8
2019-Sep-17 18:00S 41°15' E 174°10'714.8
2019-Sep-17 17:31S 41°13' E 174°20'816.4
2019-Sep-17 17:00S 41°18' E 174°29'815.2
2019-Sep-17 16:30S 41°22' E 174°38'815.4
2019-Sep-17 16:01S 41°22' E 174°48'612.0
2019-Sep-17 15:31S 41°16' E 174°49'2 3.0
2019-Sep-17 14:59S 41°16' E 174°47'0 0.0
2019-Sep-17 14:29S 41°16' E 174°47'0 0.0
2019-Sep-17 13:59S 41°16' E 174°47'0 0.0
2019-Sep-17 13:29S 41°16' E 174°47'2 4.4
2019-Sep-17 13:01S 41°16' E 174°50'714.5
2019-Sep-17 12:31S 41°24' E 174°49'816.2
2019-Sep-17 12:01S 41°23' E 174°38'816.2
2019-Sep-17 11:31S 41°18' E 174°29'815.9
2019-Sep-17 11:01S 41°14' E 174°20'612.5
2019-Sep-17 10:31S 41°14' E 174°12'612.9
2019-Sep-17 10:01S 41°15' E 174°03'3 6.0
2019-Sep-17 09:28S 41°17' E 174°00'0 0.0
2019-Sep-17 08:58S 41°17' E 174°00'0 0.0
2019-Sep-17 08:28S 41°17' E 174°00'1 2.0
2019-Sep-17 08:00S 41°16' E 174°01'713.5
2019-Sep-17 07:31S 41°14' E 174°09'714.5
2019-Sep-17 07:01S 41°13' E 174°19'816.8
2019-Sep-17 06:30S 41°17' E 174°28'817.0
2019-Sep-17 06:00S 41°22' E 174°38'917.2
2019-Sep-17 05:31S 41°22' E 174°49'612.0
2019-Sep-17 05:00S 41°16' E 174°48'1 1.1
2019-Sep-17 04:30S 41°16' E 174°47'0 0.0
2019-Sep-17 03:57S 41°16' E 174°47'0 0.0
2019-Sep-17 03:30S 41°16' E 174°47'0 0.0
2019-Sep-17 03:00S 41°16' E 174°47'0 0.0
2019-Sep-17 02:30S 41°16' E 174°47'0 0.0
2019-Sep-17 02:00S 41°16' E 174°47'0 0.0
2019-Sep-17 01:27S 41°16' E 174°47'0 0.0
2019-Sep-17 01:00S 41°16' E 174°47'0 0.0
2019-Sep-17 00:30S 41°16' E 174°47'1 2.1
2019-Sep-17 00:00S 41°16' E 174°49'612.9
2019-Sep-16 23:31S 41°23' E 174°50'816.2
2019-Sep-16 23:01S 41°23' E 174°39'816.7
2019-Sep-16 22:31S 41°19' E 174°30'917.8
2019-Sep-16 22:01S 41°13' E 174°20'713.6
2019-Sep-16 21:31S 41°15' E 174°11'612.7
2019-Sep-16 21:01S 41°15' E 174°03'3 5.5
2019-Sep-16 20:30S 41°17' E 174°00'0 0.0
2019-Sep-16 20:00S 41°17' E 174°00'0 0.0
2019-Sep-16 19:30S 41°17' E 174°00'0 0.0
2019-Sep-16 19:00S 41°17' E 174°00'1 1.7
2019-Sep-16 18:30S 41°16' E 174°01'713.6
2019-Sep-16 18:01S 41°14' E 174°09'713.2
2019-Sep-16 17:30S 41°13' E 174°18'815.5
2019-Sep-16 17:00S 41°17' E 174°27'815.1
2019-Sep-16 16:30S 41°21' E 174°35'815.8
2019-Sep-16 16:00S 41°23' E 174°46'713.2
2019-Sep-16 15:31S 41°17' E 174°51'3 5.9
2019-Sep-16 15:00S 41°16' E 174°47'0 0.0
2019-Sep-16 14:30S 41°16' E 174°47'0 0.0
2019-Sep-16 14:00S 41°16' E 174°47'0 0.0
2019-Sep-16 13:30S 41°16' E 174°47'0 0.0
2019-Sep-16 13:00S 41°16' E 174°47'0 0.0
2019-Sep-16 12:30S 41°16' E 174°47'0 0.0
2019-Sep-16 12:00S 41°16' E 174°47'0 0.0
2019-Sep-16 11:30S 41°16' E 174°47'0 0.0
2019-Sep-16 11:00S 41°16' E 174°47'0 0.0
2019-Sep-16 10:30S 41°16' E 174°47'0 0.0
2019-Sep-16 10:00S 41°16' E 174°47'0 0.0
2019-Sep-16 09:30S 41°16' E 174°47'0 0.0
2019-Sep-16 09:00S 41°16' E 174°47'0 0.2
2019-Sep-16 08:27S 41°16' E 174°47'0 0.0
2019-Sep-16 08:00S 41°16' E 174°47'0 0.0
2019-Sep-16 07:09S 41°16' E 174°47'0 0.0
2019-Sep-16 06:57S 41°16' E 174°47'0 0.0
2019-Sep-16 06:30S 41°16' E 174°47'0 0.0
2019-Sep-16 06:00S 41°16' E 174°47'0 0.0
2019-Sep-16 05:30S 41°16' E 174°47'0 0.0
2019-Sep-16 05:00S 41°16' E 174°47'0 0.0
2019-Sep-16 04:30S 41°16' E 174°47'0 0.0
2019-Sep-16 04:00S 41°16' E 174°47'0 0.0
2019-Sep-16 03:30S 41°16' E 174°47'0 0.0
2019-Sep-16 03:00S 41°16' E 174°47'0 0.0
2019-Sep-16 02:30S 41°16' E 174°47'0 0.0
2019-Sep-16 01:57S 41°16' E 174°47'0 0.0
2019-Sep-16 01:30S 41°16' E 174°47'0 0.0
2019-Sep-16 01:00S 41°16' E 174°47'0 0.0
2019-Sep-16 00:30S 41°16' E 174°47'0 0.0
2019-Sep-16 00:00S 41°16' E 174°47'0 0.0
2019-Sep-15 23:30S 41°16' E 174°47'0 0.0
2019-Sep-15 23:00S 41°16' E 174°47'0 0.0
2019-Sep-15 22:30S 41°16' E 174°47'0 0.0
2019-Sep-15 22:00S 41°16' E 174°47'0 0.0
2019-Sep-15 21:30S 41°16' E 174°47'0 0.0
2019-Sep-15 21:00S 41°16' E 174°47'0 0.0
2019-Sep-15 20:30S 41°16' E 174°47'0 0.0
2019-Sep-15 20:00S 41°16' E 174°47'0 0.0
2019-Sep-15 19:30S 41°16' E 174°47'0 0.0
2019-Sep-15 19:00S 41°16' E 174°47'0 0.0
2019-Sep-15 18:30S 41°16' E 174°47'0 0.0
2019-Sep-15 18:00S 41°16' E 174°47'0 0.3
2019-Sep-15 17:30S 41°16' E 174°47'0 0.3
2019-Sep-15 16:58S 41°16' E 174°47'0 0.0
2019-Sep-15 16:28S 41°16' E 174°47'0 0.4
2019-Sep-15 16:01S 41°16' E 174°47'510.7
2019-Sep-15 15:30S 41°21' E 174°51'612.6
2019-Sep-15 15:00S 41°23' E 174°43'816.3
2019-Sep-15 14:30S 41°20' E 174°33'816.3
2019-Sep-15 14:00S 41°16' E 174°24'612.7
2019-Sep-15 13:30S 41°14' E 174°16'713.9
2019-Sep-15 13:00S 41°14' E 174°07'610.7
2019-Sep-15 12:30S 41°17' E 174°00'0 0.0
2019-Sep-15 12:00S 41°17' E 174°00'0 0.0
2019-Sep-15 11:30S 41°17' E 174°00'3 6.3
2019-Sep-15 11:01S 41°15' E 174°03'713.3
2019-Sep-15 10:31S 41°14' E 174°12'713.2
2019-Sep-15 10:01S 41°14' E 174°21'816.3
2019-Sep-15 09:31S 41°18' E 174°30'917.5
2019-Sep-15 09:01S 41°22' E 174°40'816.4
2019-Sep-15 08:31S 41°21' E 174°51'611.1
2019-Sep-15 08:00S 41°16' E 174°47'0 0.1
2019-Sep-15 07:30S 41°16' E 174°47'0 0.0
2019-Sep-15 07:00S 41°16' E 174°47'0 0.9
2019-Sep-15 06:30S 41°16' E 174°48'3 7.0
2019-Sep-15 06:00S 41°16' E 174°52'2 3.3
2019-Sep-15 05:30S 41°15' E 174°52'4 6.9
2019-Sep-15 05:00S 41°16' E 174°47'0 0.0
2019-Sep-15 04:24S 41°16' E 174°47'0 0.0
2019-Sep-15 03:57S 41°16' E 174°47'0 0.0
2019-Sep-15 03:27S 41°16' E 174°47'0 0.0
2019-Sep-15 02:57S 41°16' E 174°47'0 0.0
2019-Sep-15 02:30S 41°16' E 174°47'0 0.0
2019-Sep-15 01:54S 41°16' E 174°47'0 0.0
2019-Sep-15 01:24S 41°16' E 174°47'0 0.0
2019-Sep-15 01:00S 41°16' E 174°47'0 0.0
2019-Sep-15 00:30S 41°16' E 174°47'0 0.0
2019-Sep-15 00:00S 41°16' E 174°47'0 0.0
2019-Sep-14 23:30S 41°16' E 174°47'0 0.0
2019-Sep-14 23:00S 41°16' E 174°47'0 0.0
2019-Sep-14 22:24S 41°16' E 174°47'0 0.0
2019-Sep-14 22:00S 41°16' E 174°47'1 2.9
2019-Sep-14 21:30S 41°16' E 174°49'0 0.6
2019-Sep-14 21:00S 41°16' E 174°49'0 0.1
2019-Sep-14 20:30S 41°16' E 174°49'0 0.0
2019-Sep-14 20:00S 41°16' E 174°49'0 0.0
2019-Sep-14 19:30S 41°16' E 174°49'0 0.1
2019-Sep-14 19:00S 41°16' E 174°49'0 0.0
2019-Sep-14 18:30S 41°16' E 174°49'0 0.1
2019-Sep-14 18:00S 41°16' E 174°49'0 0.0
2019-Sep-14 17:30S 41°16' E 174°49'0 0.0
2019-Sep-14 17:00S 41°16' E 174°49'0 0.1
2019-Sep-14 16:30S 41°16' E 174°49'0 0.0
2019-Sep-14 16:00S 41°16' E 174°49'0 0.0
2019-Sep-14 15:30S 41°16' E 174°49'0 0.1
2019-Sep-14 15:00S 41°16' E 174°49'1 2.3
2019-Sep-14 14:30S 41°16' E 174°48'1 1.1
2019-Sep-14 14:00S 41°16' E 174°47'0 0.0
2019-Sep-14 13:30S 41°16' E 174°47'0 0.2
2019-Sep-14 13:00S 41°16' E 174°47'5 9.1
2019-Sep-14 12:31S 41°20' E 174°51'612.4
2019-Sep-14 12:01S 41°23' E 174°45'917.1
2019-Sep-14 11:31S 41°21' E 174°34'816.2
2019-Sep-14 11:01S 41°16' E 174°25'713.7
2019-Sep-14 10:31S 41°14' E 174°17'713.5
2019-Sep-14 10:01S 41°14' E 174°08'612.5
2019-Sep-14 09:30S 41°17' E 174°00'0 0.0
2019-Sep-14 09:00S 41°17' E 174°00'0 0.0
2019-Sep-14 08:30S 41°17' E 174°00'0 0.1
2019-Sep-14 08:00S 41°17' E 174°00'4 7.4
2019-Sep-14 07:30S 41°14' E 174°04'612.9
2019-Sep-14 07:00S 41°14' E 174°12'714.2
2019-Sep-14 06:30S 41°14' E 174°22'816.0
2019-Sep-14 06:00S 41°19' E 174°31'918.3
2019-Sep-14 05:30S 41°23' E 174°42'815.2
2019-Sep-14 05:00S 41°20' E 174°51'5 9.3
2019-Sep-14 04:30S 41°16' E 174°47'0 0.0
2019-Sep-14 03:46S 41°16' E 174°47'0 0.0
2019-Sep-14 03:28S 41°16' E 174°47'0 0.0
2019-Sep-14 02:58S 41°16' E 174°47'0 0.0
2019-Sep-14 02:28S 41°16' E 174°47'0 0.0
2019-Sep-14 01:49S 41°16' E 174°47'0 0.0
2019-Sep-14 01:25S 41°16' E 174°47'0 0.0
2019-Sep-14 00:58S 41°16' E 174°47'0 0.0
2019-Sep-14 00:28S 41°16' E 174°47'1 1.5
2019-Sep-14 00:00S 41°16' E 174°48'612.2
2019-Sep-13 23:30S 41°22' E 174°50'815.8
2019-Sep-13 23:00S 41°23' E 174°40'917.8
2019-Sep-13 22:31S 41°19' E 174°29'816.9
2019-Sep-13 22:00S 41°14' E 174°20'714.3
2019-Sep-13 21:30S 41°15' E 174°11'713.0
2019-Sep-13 21:00S 41°15' E 174°02'2 4.4
2019-Sep-13 20:29S 41°17' E 174°00'0 0.0
2019-Sep-13 19:59S 41°17' E 174°00'0 0.0
2019-Sep-13 19:29S 41°17' E 174°00'0 0.2
2019-Sep-13 19:00S 41°17' E 174°00'5 9.7
2019-Sep-13 18:31S 41°14' E 174°06'713.8
2019-Sep-13 18:00S 41°14' E 174°15'815.2
2019-Sep-13 17:30S 41°16' E 174°25'1019.6
2019-Sep-13 17:00S 41°21' E 174°36'1019.8
2019-Sep-13 16:31S 41°22' E 174°49'612.3
2019-Sep-13 16:00S 41°16' E 174°47'0 0.4
2019-Sep-13 15:29S 41°16' E 174°47'0 0.0
2019-Sep-13 14:59S 41°16' E 174°47'0 0.0
2019-Sep-13 14:29S 41°16' E 174°47'0 0.0
2019-Sep-13 13:59S 41°16' E 174°47'0 0.2
2019-Sep-13 13:31S 41°16' E 174°47'510.3
2019-Sep-13 13:00S 41°20' E 174°51'714.3
2019-Sep-13 12:30S 41°23' E 174°42'918.6
2019-Sep-13 12:00S 41°19' E 174°31'917.2
2019-Sep-13 11:30S 41°14' E 174°22'611.7
2019-Sep-13 11:01S 41°14' E 174°14'714.1
2019-Sep-13 10:31S 41°14' E 174°04'4 8.0
2019-Sep-13 10:00S 41°17' E 174°00'0 0.0
2019-Sep-13 09:30S 41°17' E 174°00'0 0.0
2019-Sep-13 09:00S 41°17' E 174°00'0 0.0
2019-Sep-13 08:30S 41°17' E 174°00'0 1.0
2019-Sep-13 08:01S 41°17' E 174°01'713.4
2019-Sep-13 07:30S 41°14' E 174°09'612.8
2019-Sep-13 07:00S 41°13' E 174°17'714.8
2019-Sep-13 06:30S 41°16' E 174°26'816.5
2019-Sep-13 06:00S 41°21' E 174°35'917.5
2019-Sep-13 05:30S 41°22' E 174°47'612.5
2019-Sep-13 05:00S 41°17' E 174°50'2 3.9
2019-Sep-13 04:30S 41°16' E 174°47'0 0.0
2019-Sep-13 04:00S 41°16' E 174°47'0 0.0
2019-Sep-13 03:30S 41°16' E 174°47'0 0.0
2019-Sep-13 03:00S 41°16' E 174°47'0 0.0
2019-Sep-13 02:30S 41°16' E 174°47'0 0.0
2019-Sep-13 01:30S 41°16' E 174°47'0 0.0
2019-Sep-13 01:00S 41°16' E 174°47'0 0.0
2019-Sep-13 00:30S 41°16' E 174°47'1 1.9
2019-Sep-13 00:00S 41°16' E 174°48'612.6
2019-Sep-12 23:30S 41°22' E 174°50'816.0
2019-Sep-12 23:00S 41°23' E 174°39'1019.0
2019-Sep-12 22:30S 41°18' E 174°28'918.0
2019-Sep-12 22:01S 41°13' E 174°19'815.1
2019-Sep-12 21:30S 41°14' E 174°09'713.1
2019-Sep-12 21:01S 41°16' E 174°01'1 1.6
2019-Sep-12 20:30S 41°17' E 174°00'0 0.0
2019-Sep-12 20:00S 41°17' E 174°00'0 0.0
2019-Sep-12 19:30S 41°17' E 174°00'0 0.0
2019-Sep-12 19:00S 41°17' E 174°00'3 5.4
2019-Sep-12 18:30S 41°15' E 174°02'612.8
2019-Sep-12 18:00S 41°15' E 174°11'714.8
2019-Sep-12 17:30S 41°14' E 174°21'816.6
2019-Sep-12 17:00S 41°18' E 174°30'917.4
2019-Sep-12 16:30S 41°22' E 174°40'816.2
2019-Sep-12 16:00S 41°21' E 174°51'611.0
2019-Sep-12 15:30S 41°16' E 174°47'0 0.3
2019-Sep-12 15:00S 41°16' E 174°47'0 0.0
2019-Sep-12 14:30S 41°16' E 174°47'0 0.0
2019-Sep-12 14:00S 41°16' E 174°47'0 0.0
2019-Sep-12 13:30S 41°16' E 174°47'2 3.3
2019-Sep-12 13:01S 41°16' E 174°49'713.9
2019-Sep-12 12:31S 41°23' E 174°50'918.0
2019-Sep-12 12:01S 41°23' E 174°38'918.5
2019-Sep-12 11:31S 41°18' E 174°27'816.8
2019-Sep-12 11:01S 41°13' E 174°18'713.8
2019-Sep-12 10:31S 41°14' E 174°09'713.7
2019-Sep-12 10:00S 41°17' E 174°01'0 0.5
2019-Sep-12 09:30S 41°17' E 174°00'0 0.0
2019-Sep-12 09:00S 41°17' E 174°00'0 0.0
2019-Sep-12 08:30S 41°17' E 174°00'1 1.3
2019-Sep-12 08:00S 41°16' E 174°01'713.8
2019-Sep-12 07:31S 41°13' E 174°09'612.6
2019-Sep-12 07:00S 41°13' E 174°17'815.8
2019-Sep-12 06:30S 41°17' E 174°27'918.1
2019-Sep-12 06:00S 41°21' E 174°37'917.7
2019-Sep-12 05:30S 41°22' E 174°49'612.4
2019-Sep-12 05:00S 41°16' E 174°48'0 1.0
2019-Sep-12 04:30S 41°16' E 174°47'0 0.0
2019-Sep-12 04:00S 41°16' E 174°47'0 0.0
2019-Sep-12 03:30S 41°16' E 174°47'0 0.0
2019-Sep-12 03:00S 41°16' E 174°47'0 0.0
2019-Sep-12 02:30S 41°16' E 174°47'0 0.0
2019-Sep-12 02:00S 41°16' E 174°47'0 0.0
2019-Sep-12 01:30S 41°16' E 174°47'0 0.0
2019-Sep-12 01:00S 41°16' E 174°47'0 0.0
2019-Sep-12 00:30S 41°16' E 174°47'0 0.9
2019-Sep-12 00:01S 41°16' E 174°48'611.5
2019-Sep-11 23:30S 41°22' E 174°50'714.7
2019-Sep-11 23:00S 41°23' E 174°41'918.1
2019-Sep-11 22:30S 41°19' E 174°30'917.3
2019-Sep-11 22:00S 41°14' E 174°21'714.9
2019-Sep-11 21:30S 41°15' E 174°11'713.3
2019-Sep-11 21:00S 41°15' E 174°02'2 4.2
2019-Sep-11 20:28S 41°17' E 174°00'0 0.0
2019-Sep-11 19:58S 41°17' E 174°00'0 0.0
2019-Sep-11 19:28S 41°17' E 174°00'0 0.1
2019-Sep-11 19:00S 41°17' E 174°00'3 6.8
2019-Sep-11 18:30S 41°14' E 174°03'713.3
2019-Sep-11 18:00S 41°14' E 174°12'714.2
2019-Sep-11 17:30S 41°14' E 174°22'816.9
2019-Sep-11 17:01S 41°19' E 174°31'917.9
2019-Sep-11 16:30S 41°23' E 174°42'815.2
2019-Sep-11 16:00S 41°20' E 174°51'5 9.2
2019-Sep-11 15:30S 41°16' E 174°47'0 0.0
2019-Sep-11 15:00S 41°16' E 174°47'0 0.0
2019-Sep-11 14:30S 41°16' E 174°47'0 0.0
2019-Sep-11 14:00S 41°16' E 174°47'0 0.0
2019-Sep-11 13:30S 41°16' E 174°47'4 7.5
2019-Sep-11 13:00S 41°18' E 174°51'713.4
2019-Sep-11 12:30S 41°24' E 174°46'917.0
2019-Sep-11 12:00S 41°21' E 174°35'917.5
2019-Sep-11 11:30S 41°17' E 174°25'714.4
2019-Sep-11 11:00S 41°13' E 174°17'713.1
2019-Sep-11 10:30S 41°14' E 174°08'713.2
2019-Sep-11 10:00S 41°17' E 174°00'0 0.2
2019-Sep-11 09:29S 41°17' E 174°00'0 0.0
2019-Sep-11 08:59S 41°17' E 174°00'0 0.0
2019-Sep-11 08:29S 41°17' E 174°00'0 0.2
2019-Sep-11 08:00S 41°17' E 174°00'5 9.8
2019-Sep-11 07:30S 41°14' E 174°06'713.3
2019-Sep-11 07:00S 41°14' E 174°15'613.0
2019-Sep-11 06:30S 41°15' E 174°23'816.4
2019-Sep-11 06:00S 41°19' E 174°32'1019.9
2019-Sep-11 05:30S 41°23' E 174°45'714.1
2019-Sep-11 05:00S 41°17' E 174°50'2 4.5
2019-Sep-11 04:28S 41°16' E 174°47'0 0.0
2019-Sep-11 03:58S 41°16' E 174°47'0 0.0
2019-Sep-11 03:28S 41°16' E 174°47'0 0.0
2019-Sep-11 02:58S 41°16' E 174°47'0 0.0
2019-Sep-11 02:28S 41°16' E 174°47'0 0.0
2019-Sep-11 01:58S 41°16' E 174°47'0 0.0
2019-Sep-11 01:28S 41°16' E 174°47'0 0.0
2019-Sep-11 00:58S 41°16' E 174°47'  

Dump ship's entire track history